createdAt,value
2023-04-06T00:09:42.798Z,3.27
2023-04-06T00:19:45.195Z,2.93
2023-04-06T00:29:47.553Z,3.07
2023-04-06T00:39:50.102Z,3.73
2023-04-06T00:49:53.635Z,3.20
2023-04-06T00:59:56.130Z,3.77
2023-04-06T01:09:59.111Z,3.70
2023-04-06T01:20:01.710Z,3.57
2023-04-06T01:30:04.417Z,3.40
2023-04-06T01:40:20.352Z,3.63
2023-04-06T01:50:22.603Z,3.53
2023-04-06T02:00:24.904Z,3.07
2023-04-06T02:10:27.377Z,2.50
2023-04-06T02:20:29.718Z,3.67
2023-04-06T02:30:34.083Z,3.20
2023-04-06T02:40:36.472Z,3.60
2023-04-06T02:50:38.984Z,3.30
2023-04-06T03:00:41.293Z,2.97
2023-04-06T03:10:43.707Z,2.90
2023-04-06T03:20:46.078Z,3.97
2023-04-06T03:30:48.554Z,3.60
2023-04-06T03:40:50.892Z,3.47
2023-04-06T03:50:53.287Z,3.23
2023-04-06T04:00:55.620Z,4.03
2023-04-06T04:10:58.101Z,4.27
2023-04-06T04:21:00.514Z,4.07
2023-04-06T04:31:02.772Z,4.23
2023-04-06T04:41:05.112Z,3.83
2023-04-06T04:51:07.620Z,4.53
2023-04-06T05:01:10.713Z,4.57
2023-04-06T05:11:13.320Z,4.13
2023-04-06T05:21:15.770Z,4.87
2023-04-06T05:31:18.360Z,4.77
2023-04-06T05:41:21.789Z,4.37
2023-04-06T05:51:24.666Z,4.00
2023-04-06T06:01:27.247Z,4.77
2023-04-06T06:11:29.999Z,3.63
2023-04-06T06:21:32.751Z,4.33
2023-04-06T06:31:35.236Z,4.10
2023-04-06T06:41:37.597Z,4.17
2023-04-06T06:51:40.060Z,2.93
2023-04-06T07:01:42.888Z,2.87
2023-04-06T07:11:45.806Z,2.87
2023-04-06T07:21:50.442Z,4.20
2023-04-06T07:31:52.963Z,4.53
2023-04-06T07:41:55.710Z,3.73
2023-04-06T07:51:58.334Z,3.47
2023-04-06T08:02:00.689Z,3.07
2023-04-06T08:12:03.321Z,3.70
2023-04-06T08:22:05.973Z,4.10
2023-04-06T08:32:08.596Z,3.53
2023-04-06T08:42:40.962Z,3.40
2023-04-06T08:52:45.541Z,3.10
2023-04-06T09:02:50.749Z,3.70
2023-04-06T09:13:04.170Z,4.27
2023-04-06T09:23:06.586Z,4.20
2023-04-06T09:33:09.075Z,3.53
2023-04-06T09:43:11.653Z,3.80
2023-04-06T09:53:14.811Z,2.80
2023-04-06T10:03:31.119Z,3.87
2023-04-06T10:13:34.700Z,4.60
2023-04-06T10:23:45.554Z,4.17
2023-04-06T10:33:59.472Z,5.47
2023-04-06T10:44:02.761Z,4.53
2023-04-06T10:54:06.739Z,3.87
2023-04-06T11:04:11.148Z,4.05
2023-04-06T11:14:13.857Z,3.10
2023-04-06T11:24:25.280Z,2.97
2023-04-06T11:34:30.208Z,2.75
2023-04-06T11:44:42.192Z,2.37
2023-04-06T11:54:44.878Z,2.67
2023-04-06T12:04:47.819Z,2.80
2023-04-06T12:14:50.210Z,2.40
2023-04-06T12:24:52.803Z,2.95
2023-04-06T12:34:55.080Z,4.43
2023-04-06T12:44:57.675Z,4.47
2023-04-06T12:55:01.555Z,4.47
2023-04-06T13:05:04.805Z,5.53
2023-04-06T13:15:07.753Z,5.43
2023-04-06T13:25:10.368Z,5.43
2023-04-06T13:35:13.146Z,4.95
2023-04-06T13:45:16.042Z,5.75
2023-04-06T13:55:18.496Z,4.40
2023-04-06T14:05:20.949Z,4.25
2023-04-06T14:15:24.046Z,4.82
2023-04-06T14:25:27.522Z,4.13
2023-04-06T14:35:32.149Z,2.67
2023-04-06T14:45:37.963Z,3.25
2023-04-06T14:55:42.580Z,3.58
2023-04-06T15:05:45.618Z,3.53
2023-04-06T15:15:48.237Z,4.00
2023-04-06T15:25:51.032Z,3.70
2023-04-06T15:35:53.738Z,3.53
2023-04-06T15:45:58.215Z,3.10
2023-04-06T15:56:05.788Z,3.25
2023-04-06T16:06:09.313Z,4.07
2023-04-06T16:16:12.015Z,2.47
2023-04-06T16:26:18.901Z,1.62
2023-04-06T16:36:25.818Z,2.65
2023-04-06T16:46:36.391Z,1.98
2023-04-06T16:56:39.029Z,1.60
2023-04-06T17:06:41.687Z,1.73
2023-04-06T17:16:44.554Z,1.80
2023-04-06T17:26:47.173Z,1.70
2023-04-06T17:36:49.488Z,3.73
2023-04-06T17:46:52.171Z,2.00
2023-04-06T17:56:55.264Z,1.93
2023-04-06T18:06:58.238Z,1.80
2023-04-06T18:17:01.022Z,2.10
2023-04-06T18:27:03.656Z,2.20
2023-04-06T18:37:06.256Z,2.33
2023-04-06T18:47:09.193Z,1.53
2023-04-06T18:57:11.839Z,0.83
2023-04-06T19:07:14.307Z,1.13
2023-04-06T19:17:17.536Z,0.83
2023-04-06T19:27:20.333Z,0.90
2023-04-06T19:37:23.683Z,0.80
2023-04-06T19:47:26.488Z,0.67
2023-04-06T19:57:29.209Z,0.90
2023-04-06T20:07:31.781Z,0.70
2023-04-06T20:17:34.431Z,1.00
2023-04-06T20:27:37.209Z,0.90
2023-04-06T20:37:40.275Z,0.97
2023-04-06T20:47:43.654Z,0.77
2023-04-06T20:57:47.004Z,0.63
2023-04-06T21:07:49.831Z,0.70
2023-04-06T21:17:52.301Z,0.60
2023-04-06T21:27:55.041Z,0.60
2023-04-06T21:37:57.801Z,0.80
2023-04-06T21:48:00.919Z,1.50
2023-04-06T21:58:03.404Z,1.23
2023-04-06T22:08:05.969Z,0.60
2023-04-06T22:18:09.213Z,1.00
2023-04-06T22:28:11.721Z,1.03
2023-04-06T22:38:14.094Z,0.73
2023-04-06T22:48:16.937Z,0.80
2023-04-06T22:58:19.388Z,0.80
2023-04-06T23:08:21.839Z,1.20
2023-04-06T23:18:24.275Z,1.20
2023-04-06T23:28:27.034Z,1.00
2023-04-06T23:38:29.439Z,0.70
2023-04-06T23:48:32.066Z,0.77
2023-04-06T23:58:34.476Z,0.97
